createdAt,value
2018-10-06T00:00:27.513Z,14.70
2018-10-06T00:02:56.063Z,14.60
2018-10-06T00:05:24.678Z,14.60
2018-10-06T00:07:53.236Z,14.60
2018-10-06T00:10:21.799Z,14.60
2018-10-06T00:12:50.761Z,14.60
2018-10-06T00:15:19.276Z,14.50
2018-10-06T00:17:47.823Z,14.50
2018-10-06T00:20:16.456Z,14.50
2018-10-06T00:22:44.989Z,14.40
2018-10-06T00:25:13.541Z,14.30
2018-10-06T00:27:42.114Z,14.30
2018-10-06T00:30:10.684Z,14.50
2018-10-06T00:32:39.299Z,14.50
2018-10-06T00:35:07.918Z,14.30
2018-10-06T00:37:36.454Z,14.20
2018-10-06T00:40:05.097Z,14.10
2018-10-06T00:42:33.668Z,14.00
2018-10-06T00:45:02.241Z,13.90
2018-10-06T00:47:30.797Z,13.80
2018-10-06T00:49:59.322Z,13.80
2018-10-06T00:52:27.859Z,13.70
2018-10-06T00:54:56.396Z,13.60
2018-10-06T00:57:24.900Z,13.60
2018-10-06T00:59:53.758Z,13.50
2018-10-06T01:02:22.330Z,13.50
2018-10-06T01:04:50.919Z,13.60
2018-10-06T01:07:20.001Z,13.50
2018-10-06T01:09:48.579Z,13.50
2018-10-06T01:12:17.156Z,13.50
2018-10-06T01:14:45.724Z,13.60
2018-10-06T01:17:14.268Z,13.50
2018-10-06T01:19:42.800Z,13.40
2018-10-06T01:22:11.341Z,13.30
2018-10-06T01:24:39.888Z,13.20
2018-10-06T01:27:08.505Z,13.10
2018-10-06T01:29:37.079Z,13.10
2018-10-06T01:32:05.644Z,13.10
2018-10-06T01:34:34.460Z,13.20
2018-10-06T01:37:02.980Z,13.20
2018-10-06T01:39:31.825Z,13.20
2018-10-06T01:42:00.746Z,13.20
2018-10-06T01:44:29.298Z,13.10
2018-10-06T01:46:58.713Z,13.10
2018-10-06T01:49:27.248Z,13.10
2018-10-06T01:51:55.883Z,13.10
2018-10-06T01:54:24.525Z,13.10
2018-10-06T01:56:53.053Z,13.10
2018-10-06T01:59:21.631Z,13.10
2018-10-06T02:01:50.173Z,13.20
2018-10-06T02:04:23.271Z,13.20
2018-10-06T02:06:52.426Z,13.20
2018-10-06T02:09:21.008Z,13.20
2018-10-06T02:11:49.696Z,13.30
2018-10-06T02:14:18.253Z,13.50
2018-10-06T02:16:46.805Z,13.60
2018-10-06T02:19:15.340Z,13.60
2018-10-06T02:21:43.859Z,13.50
2018-10-06T02:24:12.400Z,13.60
2018-10-06T02:26:40.923Z,13.70
2018-10-06T02:29:09.450Z,13.50
2018-10-06T02:31:38.016Z,13.50
2018-10-06T02:34:06.669Z,13.50
2018-10-06T02:36:35.200Z,13.60
2018-10-06T02:39:04.361Z,13.30
2018-10-06T02:41:32.918Z,13.40
2018-10-06T02:44:01.461Z,13.50
2018-10-06T02:46:30.153Z,13.40
2018-10-06T02:48:58.701Z,13.40
2018-10-06T02:51:27.221Z,13.30
2018-10-06T02:53:55.781Z,13.20
2018-10-06T02:56:24.376Z,13.20
2018-10-06T02:58:52.910Z,13.20
2018-10-06T03:01:21.458Z,13.10
2018-10-06T03:03:49.995Z,13.10
2018-10-06T03:06:18.588Z,13.10
2018-10-06T03:08:47.148Z,13.10
2018-10-06T03:11:15.718Z,13.10
2018-10-06T03:13:44.306Z,13.10
2018-10-06T03:16:12.922Z,13.10
2018-10-06T03:18:41.428Z,13.20
2018-10-06T03:21:09.933Z,13.20
2018-10-06T03:23:38.875Z,13.20
2018-10-06T03:26:07.433Z,13.10
2018-10-06T03:28:35.930Z,13.30
2018-10-06T03:31:04.509Z,13.20
2018-10-06T03:33:33.081Z,13.20
2018-10-06T03:36:01.754Z,13.20
2018-10-06T03:38:30.420Z,13.20
2018-10-06T03:40:59.466Z,13.30
2018-10-06T03:43:27.995Z,13.30
2018-10-06T03:45:56.570Z,13.30
2018-10-06T03:48:25.118Z,13.40
2018-10-06T03:50:53.682Z,13.30
2018-10-06T03:53:22.256Z,13.40
2018-10-06T03:55:50.756Z,13.40
2018-10-06T03:58:19.384Z,13.30
2018-10-06T04:00:47.903Z,13.30
2018-10-06T04:03:16.523Z,13.40
2018-10-06T04:05:45.070Z,13.40
2018-10-06T04:08:13.598Z,13.30
2018-10-06T04:10:42.561Z,13.30
2018-10-06T04:13:11.088Z,13.30
2018-10-06T04:15:39.625Z,13.20
2018-10-06T04:18:08.163Z,13.20
2018-10-06T04:20:36.675Z,13.20
2018-10-06T04:23:05.273Z,13.20
2018-10-06T04:25:33.817Z,13.20
2018-10-06T04:28:02.366Z,13.10
2018-10-06T04:30:30.940Z,13.00
2018-10-06T04:32:59.551Z,13.10
2018-10-06T04:35:28.135Z,13.20
2018-10-06T04:37:56.683Z,13.20
2018-10-06T04:40:25.313Z,13.20
2018-10-06T04:42:54.481Z,13.10
2018-10-06T04:45:23.031Z,13.20
2018-10-06T04:47:51.545Z,13.40
2018-10-06T04:50:21.152Z,13.50
2018-10-06T04:52:50.051Z,13.50
2018-10-06T04:55:18.565Z,13.50
2018-10-06T04:57:47.113Z,13.50
2018-10-06T05:00:15.948Z,13.40
2018-10-06T05:02:44.508Z,13.30
2018-10-06T05:05:13.083Z,13.30
2018-10-06T05:07:41.656Z,13.30
2018-10-06T05:10:10.248Z,13.30
2018-10-06T05:12:38.838Z,13.30
2018-10-06T05:15:07.571Z,13.40
2018-10-06T05:17:36.141Z,13.40
2018-10-06T05:20:04.911Z,13.30
2018-10-06T05:22:33.494Z,13.30
2018-10-06T05:25:02.172Z,13.30
2018-10-06T05:27:30.753Z,13.30
2018-10-06T05:29:59.317Z,13.30
2018-10-06T05:32:27.812Z,13.40
2018-10-06T05:34:56.371Z,13.40
2018-10-06T05:37:25.156Z,13.40
2018-10-06T05:39:53.689Z,13.40
2018-10-06T05:42:22.191Z,13.40
2018-10-06T05:44:50.761Z,13.40
2018-10-06T05:47:19.309Z,13.40
2018-10-06T05:49:47.816Z,13.50
2018-10-06T05:52:16.326Z,13.40
2018-10-06T05:54:44.853Z,13.40
2018-10-06T05:57:13.418Z,13.40
2018-10-06T05:59:41.940Z,13.50
2018-10-06T06:02:10.596Z,13.40
2018-10-06T06:04:39.110Z,13.50
2018-10-06T06:07:07.911Z,13.60
2018-10-06T06:09:36.501Z,13.70
2018-10-06T06:12:05.046Z,13.70
2018-10-06T06:14:33.621Z,13.70
2018-10-06T06:17:02.194Z,13.60
2018-10-06T06:19:30.723Z,13.60
2018-10-06T06:21:59.224Z,13.50
2018-10-06T06:24:28.668Z,13.50
2018-10-06T06:26:57.199Z,13.50
2018-10-06T06:29:25.712Z,13.60
2018-10-06T06:31:54.243Z,13.50
2018-10-06T06:34:22.788Z,13.50
2018-10-06T06:36:51.348Z,13.50
2018-10-06T06:39:19.930Z,13.60
2018-10-06T06:41:48.488Z,13.60
2018-10-06T06:44:17.053Z,13.60
2018-10-06T06:46:45.576Z,13.70
2018-10-06T06:49:14.147Z,13.70
2018-10-06T06:51:42.750Z,13.70
2018-10-06T06:54:11.249Z,13.70
2018-10-06T06:56:39.748Z,13.70
2018-10-06T06:59:08.293Z,13.80
2018-10-06T07:01:36.858Z,13.80
2018-10-06T07:04:05.466Z,13.80
2018-10-06T07:06:34.000Z,13.90
2018-10-06T07:09:02.723Z,13.90
2018-10-06T07:11:31.252Z,13.90
2018-10-06T07:13:59.781Z,13.90
2018-10-06T07:16:28.318Z,13.90
2018-10-06T07:18:56.834Z,13.90
2018-10-06T07:21:25.393Z,13.90
2018-10-06T07:23:53.908Z,14.00
2018-10-06T07:26:22.853Z,14.20
2018-10-06T07:28:51.374Z,14.20
2018-10-06T07:31:19.880Z,14.30
2018-10-06T07:33:48.430Z,14.30
2018-10-06T07:36:16.976Z,14.30
2018-10-06T07:38:45.520Z,14.40
2018-10-06T07:41:14.053Z,14.60
2018-10-06T07:43:42.629Z,14.60
2018-10-06T07:46:11.156Z,14.70
2018-10-06T07:48:39.776Z,14.80
2018-10-06T07:51:08.335Z,14.80
2018-10-06T07:53:37.690Z,14.90
2018-10-06T07:56:07.202Z,14.80
2018-10-06T07:58:35.844Z,14.90
2018-10-06T08:01:04.395Z,14.80
2018-10-06T08:03:33.018Z,14.90
2018-10-06T08:06:01.616Z,14.90
2018-10-06T08:08:30.181Z,14.90
2018-10-06T08:10:58.866Z,14.90
2018-10-06T08:13:27.356Z,14.90
2018-10-06T08:15:55.887Z,15.00
2018-10-06T08:18:24.421Z,15.20
2018-10-06T08:20:53.346Z,15.40
2018-10-06T08:23:21.873Z,15.50
2018-10-06T08:25:50.448Z,15.60
2018-10-06T08:28:18.993Z,15.70
2018-10-06T08:30:47.543Z,15.80
2018-10-06T08:33:16.060Z,15.90
2018-10-06T08:35:44.606Z,15.90
2018-10-06T08:38:13.158Z,15.80
2018-10-06T08:40:41.762Z,15.80
2018-10-06T08:43:10.388Z,15.80
2018-10-06T08:45:38.928Z,15.80
2018-10-06T08:48:07.488Z,15.80
2018-10-06T08:50:35.986Z,15.80
2018-10-06T08:53:04.500Z,15.80
2018-10-06T08:55:33.086Z,15.80
2018-10-06T08:58:01.656Z,15.70
2018-10-06T09:00:30.168Z,15.70
2018-10-06T09:02:58.763Z,15.90
2018-10-06T09:05:27.331Z,16.00
2018-10-06T09:07:55.905Z,15.90
2018-10-06T09:10:24.421Z,15.90
2018-10-06T09:12:52.920Z,15.90
2018-10-06T09:15:21.456Z,16.00
2018-10-06T09:17:49.983Z,16.00
2018-10-06T09:20:18.513Z,15.90
2018-10-06T09:22:47.051Z,15.90
2018-10-06T09:25:15.571Z,15.80
2018-10-06T09:27:44.245Z,15.80
2018-10-06T09:30:12.868Z,15.80
2018-10-06T09:32:41.408Z,15.80
2018-10-06T09:35:09.986Z,15.80
2018-10-06T09:37:38.506Z,15.70
2018-10-06T09:40:07.078Z,15.80
2018-10-06T09:42:35.735Z,15.80
2018-10-06T09:45:04.280Z,15.80
2018-10-06T09:47:32.905Z,15.80
2018-10-06T09:50:01.456Z,15.80
2018-10-06T09:52:29.998Z,15.90
2018-10-06T09:54:58.531Z,15.90
2018-10-06T09:57:27.113Z,16.00
2018-10-06T09:59:55.697Z,16.00
2018-10-06T10:02:29.631Z,16.00
2018-10-06T10:05:03.621Z,16.00
2018-10-06T10:07:34.171Z,16.00
2018-10-06T10:10:04.154Z,15.90
2018-10-06T10:12:32.627Z,16.00
2018-10-06T10:15:01.191Z,16.00
2018-10-06T10:17:29.844Z,16.00
2018-10-06T10:19:58.530Z,16.00
2018-10-06T10:22:27.320Z,16.00
2018-10-06T10:24:55.715Z,16.00
2018-10-06T10:27:24.268Z,16.00
2018-10-06T10:29:52.858Z,16.00
2018-10-06T10:32:21.464Z,16.10
2018-10-06T10:34:50.241Z,16.10
2018-10-06T10:37:18.870Z,16.10
2018-10-06T10:39:47.500Z,16.10
2018-10-06T10:42:16.096Z,16.20
2018-10-06T10:44:44.604Z,16.10
2018-10-06T10:47:13.411Z,16.00
2018-10-06T10:49:42.208Z,15.90
2018-10-06T10:52:10.832Z,16.00
2018-10-06T10:54:39.584Z,16.00
2018-10-06T10:57:08.161Z,15.80
2018-10-06T10:59:36.990Z,15.80
2018-10-06T11:02:05.655Z,15.80
2018-10-06T11:04:34.286Z,15.80
2018-10-06T11:07:02.937Z,15.80
2018-10-06T11:09:31.833Z,15.90
2018-10-06T11:12:00.458Z,15.90
2018-10-06T11:14:28.981Z,16.10
2018-10-06T11:16:57.607Z,16.20
2018-10-06T11:19:26.221Z,16.50
2018-10-06T11:21:55.634Z,16.50
2018-10-06T11:24:24.171Z,16.30
2018-10-06T11:26:53.343Z,16.30
2018-10-06T11:29:22.450Z,16.20
2018-10-06T11:31:51.039Z,16.30
2018-10-06T11:34:19.640Z,16.20
2018-10-06T11:36:48.336Z,16.20
2018-10-06T11:39:16.853Z,16.10
2018-10-06T11:41:46.011Z,16.20
2018-10-06T11:44:14.872Z,16.20
2018-10-06T11:46:43.853Z,16.20
2018-10-06T11:49:12.477Z,16.30
2018-10-06T11:51:41.056Z,16.40
2018-10-06T11:54:09.590Z,16.50
2018-10-06T11:56:38.143Z,16.60
2018-10-06T11:59:06.773Z,16.60
2018-10-06T12:01:36.481Z,16.40
2018-10-06T12:04:05.113Z,16.30
2018-10-06T12:06:33.770Z,16.20
2018-10-06T12:09:02.421Z,16.10
2018-10-06T12:11:31.046Z,16.00
2018-10-06T12:13:59.634Z,15.90
2018-10-06T12:16:28.307Z,15.90
2018-10-06T12:18:56.930Z,15.90
2018-10-06T12:34:34.627Z,15.80
2018-10-06T12:37:03.128Z,15.60
2018-10-06T12:39:32.329Z,15.60
2018-10-06T12:42:00.890Z,15.50
2018-10-06T12:44:29.544Z,15.50
2018-10-06T12:46:58.126Z,15.60
2018-10-06T12:49:28.455Z,15.60
2018-10-06T12:52:01.144Z,15.60
2018-10-06T12:54:29.729Z,15.70
2018-10-06T12:56:59.389Z,15.80
2018-10-06T12:59:28.015Z,15.90
2018-10-06T13:01:56.636Z,16.10
2018-10-06T13:04:25.493Z,16.10
2018-10-06T13:06:54.014Z,16.10
2018-10-06T13:09:22.591Z,16.10
2018-10-06T13:11:51.366Z,16.10
2018-10-06T13:14:20.268Z,16.10
2018-10-06T13:16:49.010Z,16.10
2018-10-06T13:19:17.593Z,16.10
2018-10-06T13:21:46.189Z,16.20
2018-10-06T13:24:14.884Z,16.10
2018-10-06T13:26:43.943Z,15.90
2018-10-06T13:29:12.593Z,16.00
2018-10-06T13:31:41.345Z,16.00
2018-10-06T13:34:09.895Z,16.10
2018-10-06T13:36:38.516Z,16.20
2018-10-06T13:39:08.664Z,16.30
2018-10-06T13:41:37.546Z,16.40
2018-10-06T13:44:06.158Z,16.60
2018-10-06T13:46:35.765Z,16.70
2018-10-06T13:49:04.319Z,16.70
2018-10-06T13:51:32.923Z,16.70
2018-10-06T13:54:01.597Z,16.60
2018-10-06T13:56:30.173Z,16.70
2018-10-06T13:58:58.807Z,16.80
2018-10-06T14:01:27.462Z,16.90
2018-10-06T14:03:56.084Z,17.00
2018-10-06T14:06:24.776Z,17.00
2018-10-06T14:08:53.873Z,17.00
2018-10-06T14:11:22.443Z,17.00
2018-10-06T14:13:51.022Z,17.20
2018-10-06T14:16:19.951Z,17.40
2018-10-06T14:18:48.535Z,17.40
2018-10-06T14:21:17.496Z,17.40
2018-10-06T14:23:46.102Z,17.40
2018-10-06T14:26:15.682Z,17.40
2018-10-06T14:28:44.275Z,17.40
2018-10-06T14:31:13.187Z,17.40
2018-10-06T14:33:41.774Z,17.30
2018-10-06T14:36:10.998Z,17.30
2018-10-06T14:38:40.291Z,17.20
2018-10-06T14:41:08.979Z,17.10
2018-10-06T14:43:37.683Z,17.00
2018-10-06T14:46:08.141Z,17.00
2018-10-06T14:48:36.701Z,17.00
2018-10-06T14:51:05.402Z,17.00
2018-10-06T14:53:34.018Z,17.00
2018-10-06T14:56:02.673Z,17.00
2018-10-06T14:58:31.236Z,17.10
2018-10-06T15:00:59.881Z,17.00
2018-10-06T15:03:28.504Z,17.00
2018-10-06T15:05:57.085Z,17.20
2018-10-06T15:08:25.656Z,17.20
2018-10-06T15:10:54.212Z,17.30
2018-10-06T15:13:23.135Z,17.30
2018-10-06T15:15:51.735Z,17.40
2018-10-06T15:18:20.319Z,17.20
2018-10-06T15:20:48.913Z,17.20
2018-10-06T15:23:17.532Z,17.10
2018-10-06T15:25:46.139Z,17.10
2018-10-06T15:28:15.341Z,17.10
2018-10-06T15:30:43.844Z,17.10
2018-10-06T15:33:12.439Z,17.20
2018-10-06T15:35:41.090Z,17.20
2018-10-06T15:38:10.622Z,17.20
2018-10-06T15:40:39.700Z,17.20
2018-10-06T15:43:08.986Z,17.10
2018-10-06T15:45:37.617Z,17.10
2018-10-06T15:48:06.256Z,17.10
2018-10-06T15:50:34.855Z,17.10
2018-10-06T15:53:03.659Z,17.10
2018-10-06T15:55:32.338Z,17.10
2018-10-06T15:58:01.011Z,17.10
2018-10-06T16:00:30.205Z,17.00
2018-10-06T16:02:59.863Z,16.90
2018-10-06T16:05:28.454Z,16.90
2018-10-06T16:07:57.055Z,16.90
2018-10-06T16:10:25.695Z,16.90
2018-10-06T16:12:54.898Z,16.80
2018-10-06T16:15:23.828Z,16.90
2018-10-06T16:17:52.393Z,16.80
2018-10-06T16:20:21.220Z,16.80
2018-10-06T16:22:49.810Z,16.80
2018-10-06T16:25:18.948Z,16.70
2018-10-06T16:27:48.025Z,16.60
2018-10-06T16:30:16.736Z,16.60
2018-10-06T16:32:45.428Z,16.60
2018-10-06T16:35:14.042Z,16.60
2018-10-06T16:37:42.653Z,16.60
2018-10-06T16:40:11.842Z,16.60
2018-10-06T16:42:40.439Z,16.60
2018-10-06T16:45:09.194Z,16.60
2018-10-06T16:47:38.583Z,16.60
2018-10-06T16:50:07.654Z,16.60
2018-10-06T16:52:36.231Z,16.60
2018-10-06T16:55:04.846Z,16.60
2018-10-06T16:57:33.458Z,16.60
2018-10-06T17:00:02.104Z,16.60
2018-10-06T17:02:30.639Z,16.50
2018-10-06T17:04:59.163Z,16.50
2018-10-06T17:07:28.355Z,16.50
2018-10-06T17:09:56.898Z,16.40
2018-10-06T17:12:25.821Z,16.40
2018-10-06T17:14:55.058Z,16.40
2018-10-06T17:17:23.665Z,16.40
2018-10-06T17:19:56.564Z,16.30
2018-10-06T17:22:26.569Z,16.30
2018-10-06T17:24:55.585Z,16.30
2018-10-06T17:27:25.566Z,16.30
2018-10-06T17:29:54.183Z,16.30
2018-10-06T17:32:22.775Z,16.30
2018-10-06T17:34:51.571Z,16.30
2018-10-06T17:37:20.303Z,16.30
2018-10-06T17:39:49.751Z,16.20
2018-10-06T17:42:18.455Z,16.20
2018-10-06T17:44:47.946Z,16.30
2018-10-06T17:47:17.307Z,16.20
2018-10-06T17:49:45.965Z,16.30
2018-10-06T17:52:14.521Z,16.30
2018-10-06T17:54:52.005Z,16.30
2018-10-06T17:57:21.491Z,16.30
2018-10-06T17:59:50.248Z,16.30
2018-10-06T18:02:18.928Z,16.30
2018-10-06T18:04:48.836Z,16.30
2018-10-06T18:07:18.042Z,16.40
2018-10-06T18:09:47.416Z,16.30
2018-10-06T18:12:15.998Z,16.30
2018-10-06T18:14:44.641Z,16.30
2018-10-06T18:17:13.420Z,16.30
2018-10-06T18:19:42.183Z,16.30
2018-10-06T18:22:10.852Z,16.30
2018-10-06T18:24:40.425Z,16.20
2018-10-06T18:27:09.033Z,16.20
2018-10-06T18:29:37.678Z,16.10
2018-10-06T18:32:06.324Z,16.20
2018-10-06T18:34:36.008Z,16.10
2018-10-06T18:37:05.354Z,16.10
2018-10-06T18:39:34.786Z,16.00
2018-10-06T18:42:03.461Z,16.00
2018-10-06T18:44:32.076Z,16.00
2018-10-06T18:47:00.743Z,16.00
2018-10-06T18:49:30.064Z,16.00
2018-10-06T18:51:58.696Z,15.90
2018-10-06T18:54:27.958Z,16.00
2018-10-06T18:56:57.198Z,16.00
2018-10-06T18:59:25.823Z,16.00
2018-10-06T19:01:54.593Z,16.00
2018-10-06T19:04:23.310Z,15.90
2018-10-06T19:06:51.995Z,15.90
2018-10-06T19:09:20.565Z,15.90
2018-10-06T19:11:49.166Z,15.90
2018-10-06T19:14:17.837Z,15.80
2018-10-06T19:16:46.561Z,15.80
2018-10-06T19:19:15.891Z,15.80
2018-10-06T19:21:44.514Z,15.80
2018-10-06T19:24:13.156Z,15.70
2018-10-06T19:26:41.872Z,15.70
2018-10-06T19:29:11.223Z,15.70
2018-10-06T19:31:39.951Z,15.70
2018-10-06T19:34:08.693Z,15.70
2018-10-06T19:36:37.502Z,15.60
2018-10-06T19:39:08.758Z,15.70
2018-10-06T19:41:38.084Z,15.60
2018-10-06T19:44:06.886Z,15.60
2018-10-06T19:46:35.780Z,15.50
2018-10-06T19:49:04.971Z,15.60
2018-10-06T19:51:34.782Z,15.50
2018-10-06T19:54:04.828Z,15.50
2018-10-06T19:56:33.610Z,15.40
2018-10-06T19:59:03.226Z,15.40
2018-10-06T20:01:32.035Z,15.40
2018-10-06T20:04:01.419Z,15.30
2018-10-06T20:06:30.206Z,15.20
2018-10-06T20:08:59.691Z,15.30
2018-10-06T20:11:28.988Z,15.30
2018-10-06T20:13:57.676Z,15.30
2018-10-06T20:16:26.454Z,15.30
2018-10-06T20:18:55.186Z,15.30
2018-10-06T20:21:23.826Z,15.30
2018-10-06T20:23:52.526Z,15.30
2018-10-06T20:26:21.944Z,15.30
2018-10-06T20:28:50.581Z,15.30
2018-10-06T20:31:19.406Z,15.30
2018-10-06T20:33:48.045Z,15.40
2018-10-06T20:36:16.704Z,15.40
2018-10-06T20:38:45.329Z,15.50
2018-10-06T20:41:14.909Z,15.50
2018-10-06T20:43:44.321Z,15.50
2018-10-06T20:46:13.118Z,15.50
2018-10-06T20:48:42.165Z,15.50
2018-10-06T20:51:10.836Z,15.50
2018-10-06T20:53:39.511Z,15.60
2018-10-06T20:56:08.368Z,15.50
2018-10-06T20:58:36.973Z,15.50
2018-10-06T21:01:05.616Z,15.50
2018-10-06T21:03:34.356Z,15.40
2018-10-06T21:06:03.068Z,15.50
2018-10-06T21:08:31.803Z,15.40
2018-10-06T21:11:00.701Z,15.40
2018-10-06T21:13:29.433Z,15.40
2018-10-06T21:15:58.123Z,15.40
2018-10-06T21:18:27.887Z,15.30
2018-10-06T21:20:56.545Z,15.30
2018-10-06T21:23:25.745Z,15.30
2018-10-06T21:25:55.259Z,15.20
2018-10-06T21:28:23.836Z,15.20
2018-10-06T21:30:53.992Z,15.10
2018-10-06T21:33:22.689Z,15.20
2018-10-06T21:35:51.355Z,15.10
2018-10-06T21:38:19.988Z,15.00
2018-10-06T21:40:48.666Z,15.00
2018-10-06T21:43:17.716Z,15.00
2018-10-06T21:45:46.331Z,15.00
2018-10-06T21:48:14.959Z,14.90
2018-10-06T21:50:43.693Z,15.00
2018-10-06T21:53:12.309Z,15.00
2018-10-06T21:55:40.931Z,15.00
2018-10-06T21:58:13.424Z,15.00
2018-10-06T22:00:42.029Z,15.00
2018-10-06T22:03:10.684Z,15.00
2018-10-06T22:05:40.116Z,15.10
2018-10-06T22:08:10.284Z,15.10
2018-10-06T22:10:38.993Z,15.10
2018-10-06T22:13:07.671Z,15.20
2018-10-06T22:15:36.399Z,15.10
2018-10-06T22:18:05.104Z,15.20
2018-10-06T22:20:33.861Z,15.20
2018-10-06T22:23:08.603Z,15.20
2018-10-06T22:25:37.216Z,15.30
2018-10-06T22:28:05.962Z,15.30
2018-10-06T22:30:34.612Z,15.30
2018-10-06T22:33:03.153Z,15.30
2018-10-06T22:35:31.765Z,15.40
2018-10-06T22:38:00.349Z,15.40
2018-10-06T22:40:29.062Z,15.40
2018-10-06T22:42:57.969Z,15.40
2018-10-06T22:45:26.565Z,15.40
2018-10-06T22:47:55.214Z,15.40
2018-10-06T22:50:24.364Z,15.40
2018-10-06T22:52:52.945Z,15.40
2018-10-06T22:55:21.599Z,15.40
2018-10-06T22:57:50.139Z,15.50
2018-10-06T23:00:18.769Z,15.50
2018-10-06T23:02:47.426Z,15.50
2018-10-06T23:05:16.045Z,15.50
2018-10-06T23:07:46.616Z,15.50
2018-10-06T23:10:26.201Z,15.50
2018-10-06T23:13:02.955Z,15.50
2018-10-06T23:15:31.674Z,15.50
2018-10-06T23:18:00.275Z,15.50
2018-10-06T23:20:29.526Z,15.50
2018-10-06T23:22:58.072Z,15.50
2018-10-06T23:25:26.646Z,15.50
2018-10-06T23:27:55.227Z,15.50
2018-10-06T23:30:23.887Z,15.50
2018-10-06T23:32:52.552Z,15.50
2018-10-06T23:35:21.110Z,15.50
2018-10-06T23:37:49.754Z,15.50
2018-10-06T23:40:18.290Z,15.50
2018-10-06T23:42:46.869Z,15.50
2018-10-06T23:45:15.427Z,15.50
2018-10-06T23:47:43.957Z,15.50
2018-10-06T23:50:12.550Z,15.50
2018-10-06T23:52:41.121Z,15.50
2018-10-06T23:55:09.665Z,15.50
2018-10-06T23:57:38.253Z,15.50
